Time;durP1;ratioP1;P1;durP2;ratioP2;P2;SDS_P1;SDS_P2;PMS_P1;PMS_P2;Temp;Humidity;BMP_temperature;BMP_pressure;BME280_temperature;BME280_humidity;BME280_pressure;Samples;Min_cycle;Max_cycle;Signal;HPM_P1;HPM_P2
2023/01/08 00:02:00;;;;;;;6.07;4.00;;;5.50;99.90;;;;;;5022296;28;20206;-72
2023/01/08 00:04:25;;;;;;;9.33;3.17;;;5.50;99.90;;;;;;5028960;28;20182;-71
2023/01/08 00:06:51;;;;;;;11.00;3.90;;;5.40;99.90;;;;;;5033312;28;20903;-72
2023/01/08 00:09:17;;;;;;;7.03;3.93;;;5.40;99.90;;;;;;5016800;28;20187;-72
2023/01/08 00:11:43;;;;;;;7.90;3.53;;;5.40;99.90;;;;;;5015759;28;20205;-72
2023/01/08 00:14:10;;;;;;;7.20;3.80;;;5.40;99.90;;;;;;5032776;28;20978;-72
2023/01/08 00:16:35;;;;;;;7.13;4.00;;;5.30;99.90;;;;;;5033803;28;20638;-72
2023/01/08 00:19:01;;;;;;;8.53;3.80;;;5.30;99.90;;;;;;5033059;28;20446;-72
2023/01/08 00:21:27;;;;;;;8.40;4.03;;;5.30;99.90;;;;;;5028326;28;20190;-72
2023/01/08 00:23:53;;;;;;;10.17;3.30;;;5.30;99.90;;;;;;5019491;28;20193;-71
2023/01/08 00:26:18;;;;;;;7.90;4.03;;;5.30;99.90;;;;;;5028311;28;20516;-72
2023/01/08 00:28:44;;;;;;;7.13;4.23;;;5.30;99.90;;;;;;5001084;28;20188;-72
2023/01/08 00:31:11;;;;;;;9.10;4.00;;;5.40;99.90;;;;;;5027865;28;20627;-71
2023/01/08 00:33:37;;;;;;;6.93;3.47;;;5.40;99.90;;;;;;5022881;28;20183;-72
2023/01/08 00:36:08;;;;;;;8.30;4.00;;;5.40;99.90;;;;;;5033119;28;20429;-72
2023/01/08 00:38:34;;;;;;;6.70;4.00;;;5.40;99.90;;;;;;5032871;28;20417;-72
2023/01/08 00:40:59;;;;;;;4.53;2.73;;;5.50;99.90;;;;;;5020214;28;20433;-72
2023/01/08 00:43:25;;;;;;;5.13;3.00;;;5.50;99.90;;;;;;5027332;28;20543;-71
2023/01/08 00:45:52;;;;;;;4.80;2.80;;;5.60;99.90;;;;;;5032474;28;20201;-72
2023/01/08 00:48:18;;;;;;;7.40;3.97;;;5.50;99.90;;;;;;5032871;28;20680;-72
2023/01/08 00:50:44;;;;;;;9.73;3.70;;;5.50;99.90;;;;;;5024719;28;20469;-72
2023/01/08 00:53:10;;;;;;;4.77;3.43;;;5.60;99.90;;;;;;5019070;28;20466;-71
2023/01/08 00:55:35;;;;;;;11.57;3.87;;;5.50;99.90;;;;;;5032689;28;20190;-71
2023/01/08 00:58:01;;;;;;;6.53;3.20;;;5.50;99.90;;;;;;5026771;28;20193;-72
2023/01/08 01:00:27;;;;;;;6.07;3.93;;;5.40;99.90;;;;;;5017007;28;20184;-71
2023/01/08 01:02:53;;;;;;;9.00;3.30;;;5.40;99.90;;;;;;5026940;28;20194;-72
2023/01/08 01:05:19;;;;;;;5.83;3.33;;;5.40;99.90;;;;;;5032710;28;20421;-72
2023/01/08 01:07:45;;;;;;;10.33;4.13;;;5.40;99.90;;;;;;5030240;28;20190;-72
2023/01/08 01:10:16;;;;;;;6.33;3.33;;;5.40;99.90;;;;;;5019781;28;20187;-72
2023/01/08 01:12:42;;;;;;;9.70;4.10;;;5.40;99.90;;;;;;5014844;28;20463;-72
2023/01/08 01:15:11;;;;;;;5.47;3.43;;;5.40;99.90;;;;;;5031850;28;20417;-72
2023/01/08 01:17:41;;;;;;;6.70;3.33;;;5.50;99.90;;;;;;5031838;28;20425;-71
2023/01/08 01:20:08;;;;;;;8.07;4.30;;;5.50;99.90;;;;;;5030052;28;20417;-72
2023/01/08 01:22:34;;;;;;;6.73;3.23;;;5.60;99.90;;;;;;5029074;28;20457;-72
2023/01/08 01:25:00;;;;;;;5.20;3.30;;;5.60;99.90;;;;;;5031111;28;20437;-72
2023/01/08 01:27:26;;;;;;;7.27;4.00;;;5.60;99.90;;;;;;5022535;28;20429;-72
2023/01/08 01:29:52;;;;;;;11.57;3.60;;;5.60;99.90;;;;;;5009651;28;20188;-71
2023/01/08 01:32:18;;;;;;;7.30;3.30;;;5.60;99.90;;;;;;5022826;28;20250;-72
2023/01/08 01:34:43;;;;;;;4.93;3.23;;;5.60;99.90;;;;;;5023142;28;20445;-72
2023/01/08 01:37:12;;;;;;;5.03;3.37;;;5.60;99.90;;;;;;5031692;28;20179;-71
2023/01/08 01:39:38;;;;;;;13.07;3.70;;;5.60;99.90;;;;;;5031679;28;20615;-71
2023/01/08 01:42:04;;;;;;;3.90;2.20;;;5.70;99.90;;;;;;5031397;28;20435;-72
2023/01/08 01:44:33;;;;;;;6.23;2.77;;;5.70;99.90;;;;;;5031524;28;20426;-72
2023/01/08 01:47:14;;;;;;;6.70;3.70;;;5.70;99.90;;;;;;5031733;28;20544;-72
2023/01/08 01:49:42;;;;;;;5.97;3.10;;;5.70;99.90;;;;;;5031690;28;20460;-72
2023/01/08 01:52:08;;;;;;;9.60;3.93;;;5.60;99.90;;;;;;5030377;28;20464;-72
2023/01/08 01:54:35;;;;;;;7.77;4.20;;;5.70;99.90;;;;;;5026199;28;20512;-71
2023/01/08 01:57:01;;;;;;;5.40;2.70;;;5.70;99.90;;;;;;5028891;28;20768;-71
2023/01/08 01:59:27;;;;;;;6.20;3.10;;;5.70;99.90;;;;;;5017416;28;20422;-71
2023/01/08 02:01:54;;;;;;;6.53;3.73;;;5.70;99.90;;;;;;5010040;28;20470;-71
2023/01/08 02:04:19;;;;;;;7.97;4.13;;;5.70;99.90;;;;;;5025756;28;20547;-71
2023/01/08 02:06:47;;;;;;;5.50;3.07;;;5.80;99.90;;;;;;5015657;28;20998;-71
2023/01/08 02:09:46;;;;;;;5.23;3.00;;;5.80;99.90;;;;;;5012540;28;20191;-71
2023/01/08 02:12:26;;;;;;;5.73;3.23;;;5.80;99.90;;;;;;5013006;28;20466;-71
2023/01/08 02:14:58;;;;;;;8.90;3.93;;;5.80;99.90;;;;;;5005476;28;20420;-72
2023/01/08 02:17:45;;;;;;;6.17;3.37;;;5.90;99.90;;;;;;5031231;28;20417;-71
2023/01/08 02:20:22;;;;;;;8.30;3.97;;;5.90;99.90;;;;;;5028981;28;20972;-71
2023/01/08 02:23:02;;;;;;;4.87;3.00;;;5.90;99.90;;;;;;5010347;28;20484;-72
2023/01/08 02:25:52;;;;;;;7.00;3.67;;;6.00;99.90;;;;;;5024920;28;20758;-71
2023/01/08 02:28:18;;;;;;;9.83;2.60;;;6.10;99.90;;;;;;5013088;28;20534;-71
2023/01/08 02:30:45;;;;;;;6.87;3.60;;;6.10;99.90;;;;;;5030628;28;20429;-71
2023/01/08 02:33:11;;;;;;;5.93;3.33;;;6.10;99.90;;;;;;5014207;28;20456;-71
2023/01/08 02:36:29;;;;;;;7.23;3.00;;;6.20;99.90;;;;;;5019885;28;20870;-73
2023/01/08 02:39:01;;;;;;;3.90;2.47;;;6.20;99.90;;;;;;5009120;28;20195;-70
2023/01/08 02:41:54;;;;;;;6.60;2.97;;;6.30;99.90;;;;;;5022978;28;20472;-71
2023/01/08 02:44:40;;;;;;;8.03;4.10;;;6.30;99.90;;;;;;4989685;28;20569;-71
2023/01/08 02:47:09;;;;;;;6.70;3.30;;;6.30;99.90;;;;;;5030750;28;20457;-72
2023/01/08 02:49:40;;;;;;;4.40;2.60;;;6.30;99.90;;;;;;5031031;28;20457;-71
2023/01/08 02:52:07;;;;;;;5.90;2.33;;;6.30;99.90;;;;;;5004772;28;20465;-71
2023/01/08 02:54:34;;;;;;;5.47;3.10;;;6.30;99.90;;;;;;5030667;28;20436;-71
2023/01/08 02:57:13;;;;;;;9.00;3.40;;;6.30;99.90;;;;;;5027672;28;20533;-71
2023/01/08 02:59:41;;;;;;;25.27;3.80;;;6.20;99.90;;;;;;5015423;28;20417;-71
2023/01/08 03:02:07;;;;;;;7.83;3.27;;;6.20;99.90;;;;;;5001868;28;20501;-71
2023/01/08 03:04:39;;;;;;;6.57;3.00;;;6.20;99.90;;;;;;5024163;28;20458;-71
2023/01/08 03:07:05;;;;;;;5.40;3.03;;;6.20;99.90;;;;;;5000695;28;20764;-71
2023/01/08 03:09:31;;;;;;;6.90;2.70;;;6.20;99.90;;;;;;5011458;28;20508;-71
2023/01/08 03:12:05;;;;;;;8.20;3.20;;;6.20;99.90;;;;;;5030076;28;20202;-70
2023/01/08 03:14:49;;;;;;;7.43;3.93;;;6.30;99.90;;;;;;5004287;28;20539;-71
2023/01/08 03:17:35;;;;;;;7.57;3.80;;;6.30;99.90;;;;;;5030818;28;20436;-71
2023/01/08 03:20:13;;;;;;;4.70;2.50;;;6.30;99.90;;;;;;5009533;28;20720;-71
2023/01/08 03:22:41;;;;;;;4.90;2.50;;;6.30;99.90;;;;;;5026681;28;20790;-71
2023/01/08 03:25:08;;;;;;;6.17;2.60;;;6.30;99.90;;;;;;5019621;28;20417;-71
2023/01/08 03:27:41;;;;;;;7.73;3.23;;;6.20;99.90;;;;;;5018725;28;20475;-71
2023/01/08 03:30:09;;;;;;;3.97;2.17;;;6.20;99.90;;;;;;5030039;28;20503;-71
2023/01/08 03:32:38;;;;;;;6.10;2.77;;;6.20;99.90;;;;;;5030012;28;20489;-71
2023/01/08 03:35:06;;;;;;;4.87;2.70;;;6.20;99.90;;;;;;5030166;28;20425;-71
2023/01/08 03:37:36;;;;;;;6.10;3.00;;;6.20;99.90;;;;;;5030536;28;20535;-70
2023/01/08 03:40:12;;;;;;;11.93;3.90;;;6.20;99.90;;;;;;5030257;28;20467;-71
2023/01/08 03:42:38;;;;;;;5.70;3.07;;;6.20;99.90;;;;;;5032652;28;20425;-71
2023/01/08 03:45:04;;;;;;;6.40;3.27;;;6.20;99.90;;;;;;5033068;28;20432;-71
2023/01/08 03:47:31;;;;;;;5.00;2.10;;;6.20;99.90;;;;;;5034078;28;20389;-70
2023/01/08 03:50:01;;;;;;;4.57;2.43;;;6.10;99.90;;;;;;5033666;28;20988;-71
2023/01/08 03:52:29;;;;;;;7.50;3.17;;;6.10;99.90;;;;;;5033392;28;20461;-71
2023/01/08 03:54:54;;;;;;;6.20;3.03;;;6.10;99.90;;;;;;5031146;28;20462;-70
2023/01/08 03:57:20;;;;;;;7.83;2.47;;;6.20;99.90;;;;;;5018946;28;20433;-71
2023/01/08 03:59:46;;;;;;;6.60;3.20;;;6.20;99.90;;;;;;5017578;28;20266;-70
2023/01/08 04:02:12;;;;;;;8.20;2.87;;;6.20;99.90;;;;;;5021982;28;20456;-71
2023/01/08 04:04:38;;;;;;;6.80;2.60;;;6.20;99.90;;;;;;5033395;28;20522;-71
2023/01/08 04:07:04;;;;;;;4.93;2.93;;;6.20;99.90;;;;;;5033617;28;20304;-71
2023/01/08 04:09:29;;;;;;;6.03;2.57;;;6.30;99.90;;;;;;5019745;28;20265;-71
2023/01/08 04:11:55;;;;;;;3.70;2.40;;;6.30;99.90;;;;;;5025343;28;20271;-71
2023/01/08 04:14:21;;;;;;;6.03;3.27;;;6.30;99.90;;;;;;5029513;28;20190;-71
2023/01/08 04:16:46;;;;;;;5.43;3.07;;;6.30;99.90;;;;;;5033428;28;20750;-71
2023/01/08 04:19:12;;;;;;;6.87;3.13;;;6.40;99.90;;;;;;5033214;28;20213;-71
2023/01/08 04:21:38;;;;;;;4.10;2.00;;;6.40;99.90;;;;;;5028676;28;20190;-71
2023/01/08 04:24:04;;;;;;;4.23;2.10;;;6.50;99.90;;;;;;5018982;28;20650;-71
2023/01/08 04:26:30;;;;;;;6.63;2.00;;;6.50;99.90;;;;;;5026966;28;20422;-70
2023/01/08 04:28:56;;;;;;;6.60;3.00;;;6.50;99.90;;;;;;5026648;28;20436;-71
2023/01/08 04:31:22;;;;;;;7.10;2.63;;;6.50;99.90;;;;;;5009715;28;20469;-71
2023/01/08 04:33:47;;;;;;;5.07;2.27;;;6.50;99.90;;;;;;5011142;28;20201;-71
2023/01/08 04:36:14;;;;;;;4.13;2.57;;;6.50;99.90;;;;;;5007653;28;20449;-71
2023/01/08 04:38:40;;;;;;;5.13;2.90;;;6.60;99.90;;;;;;5018557;28;20193;-70
2023/01/08 04:41:06;;;;;;;4.70;2.00;;;6.70;99.90;;;;;;5016386;28;20418;-71
2023/01/08 04:43:32;;;;;;;5.53;2.20;;;6.80;99.90;;;;;;5020320;28;20197;-70
2023/01/08 04:45:59;;;;;;;4.63;2.07;;;6.90;99.90;;;;;;5006653;28;20527;-70
2023/01/08 04:48:25;;;;;;;2.63;1.60;;;6.90;99.90;;;;;;5005024;28;20217;-71
2023/01/08 04:50:50;;;;;;;2.33;1.37;;;7.00;99.90;;;;;;5012850;28;20438;-70
2023/01/08 04:53:16;;;;;;;5.07;2.20;;;7.00;99.90;;;;;;5006979;28;20450;-71
2023/01/08 04:55:42;;;;;;;3.33;1.87;;;7.00;99.90;;;;;;5003057;28;20188;-71
2023/01/08 04:58:07;;;;;;;4.63;1.80;;;6.90;99.90;;;;;;4999867;28;20830;-71
2023/01/08 05:00:33;;;;;;;9.03;1.80;;;7.00;99.90;;;;;;5012370;28;20179;-71
2023/01/08 05:02:59;;;;;;;2.13;1.13;;;7.00;99.90;;;;;;5012354;28;20225;-71
2023/01/08 05:05:24;;;;;;;3.90;1.70;;;7.00;99.90;;;;;;5003422;28;20598;-71
2023/01/08 05:07:50;;;;;;;2.43;1.40;;;7.00;99.90;;;;;;5008396;28;20211;-71
2023/01/08 05:10:16;;;;;;;2.20;1.47;;;6.90;99.90;;;;;;5003160;28;20187;-71
2023/01/08 05:12:41;;;;;;;5.20;1.90;;;6.90;99.90;;;;;;5007049;28;20237;-71
2023/01/08 05:15:08;;;;;;;3.60;2.00;;;6.90;99.90;;;;;;5010801;28;20270;-71
2023/01/08 05:17:33;;;;;;;3.73;1.50;;;6.80;99.90;;;;;;5006615;28;20234;-70
2023/01/08 05:19:59;;;;;;;4.93;1.90;;;6.90;99.90;;;;;;5002272;28;20422;-71
2023/01/08 05:22:24;;;;;;;3.23;1.33;;;6.90;99.90;;;;;;5007989;28;20203;-71
2023/01/08 05:24:50;;;;;;;2.70;1.30;;;6.80;99.90;;;;;;5003169;28;20192;-70
2023/01/08 05:27:15;;;;;;;3.43;1.57;;;6.90;99.90;;;;;;5006231;28;20194;-71
2023/01/08 05:29:41;;;;;;;2.17;1.07;;;6.90;99.90;;;;;;5011606;28;20187;-71
2023/01/08 05:32:17;;;;;;;2.80;1.67;;;6.90;99.90;;;;;;5028042;28;20214;-71
2023/01/08 05:34:44;;;;;;;6.03;1.37;;;7.00;99.90;;;;;;5032148;28;20833;-71
2023/01/08 05:37:10;;;;;;;3.43;1.40;;;7.00;99.90;;;;;;5030523;28;20413;-70
2023/01/08 05:39:36;;;;;;;1.60;1.07;;;7.00;99.90;;;;;;5020595;28;20529;-70
2023/01/08 05:42:02;;;;;;;2.87;1.43;;;7.00;99.90;;;;;;5029329;28;20226;-71
2023/01/08 05:44:27;;;;;;;3.40;1.60;;;6.90;99.90;;;;;;5031102;28;20514;-71
2023/01/08 05:46:53;;;;;;;2.90;1.60;;;6.90;99.90;;;;;;5032162;28;20198;-71
2023/01/08 05:49:20;;;;;;;2.57;1.27;;;6.90;99.90;;;;;;5031691;28;20209;-71
2023/01/08 05:51:46;;;;;;;2.80;1.37;;;6.80;99.90;;;;;;5026898;28;20265;-72
2023/01/08 05:54:12;;;;;;;1.70;1.03;;;6.80;99.90;;;;;;5011491;28;20434;-72
2023/01/08 05:56:38;;;;;;;1.83;1.07;;;6.80;99.90;;;;;;5017363;28;20508;-72
2023/01/08 05:59:04;;;;;;;2.00;1.10;;;6.80;99.90;;;;;;5020981;28;20489;-72
2023/01/08 06:01:29;;;;;;;5.30;1.43;;;6.80;99.90;;;;;;5011028;28;20211;-72
2023/01/08 06:03:55;;;;;;;1.80;0.77;;;6.80;99.90;;;;;;5022318;28;20218;-72
2023/01/08 06:06:21;;;;;;;1.50;0.90;;;6.80;99.90;;;;;;5031299;28;20186;-72
2023/01/08 06:08:47;;;;;;;1.80;0.90;;;6.80;99.90;;;;;;5020285;28;20183;-72
2023/01/08 06:11:12;;;;;;;4.23;0.70;;;6.90;99.90;;;;;;5006391;28;20667;-72
2023/01/08 06:13:41;;;;;;;1.43;0.87;;;6.90;99.90;;;;;;5022078;28;20185;-72
2023/01/08 06:16:07;;;;;;;2.20;1.07;;;6.90;99.90;;;;;;5030489;28;20186;-72
2023/01/08 06:18:33;;;;;;;1.70;0.80;;;6.90;99.90;;;;;;5023646;28;20452;-71
2023/01/08 06:20:58;;;;;;;2.07;0.90;;;6.90;99.90;;;;;;5027056;28;20569;-72
2023/01/08 06:23:24;;;;;;;1.90;0.63;;;7.00;99.90;;;;;;5030616;28;20214;-73
2023/01/08 06:25:57;;;;;;;1.77;1.00;;;6.90;99.90;;;;;;5028488;28;20186;-72
2023/01/08 06:28:24;;;;;;;3.03;1.20;;;6.90;99.90;;;;;;4999198;28;20293;-72
2023/01/08 06:30:50;;;;;;;1.93;1.10;;;6.90;99.90;;;;;;5029020;28;20500;-72
2023/01/08 06:33:16;;;;;;;1.97;0.90;;;6.80;99.90;;;;;;5027042;28;22802;-73
2023/01/08 06:35:42;;;;;;;2.00;1.10;;;6.80;99.90;;;;;;5015727;28;20188;-73
2023/01/08 06:38:07;;;;;;;8.77;1.60;;;6.70;99.90;;;;;;5025658;28;20421;-72
2023/01/08 06:40:33;;;;;;;3.80;1.33;;;6.70;99.90;;;;;;5030974;28;20178;-72
2023/01/08 06:43:02;;;;;;;1.67;1.00;;;6.60;99.90;;;;;;5005650;28;20294;-72
2023/01/08 06:45:28;;;;;;;6.90;1.97;;;6.50;99.90;;;;;;5030203;28;20637;-72
2023/01/08 06:47:53;;;;;;;2.17;1.17;;;6.50;99.90;;;;;;5005586;28;20430;-72
2023/01/08 06:50:19;;;;;;;3.77;1.27;;;6.40;99.90;;;;;;5014435;28;20612;-72
2023/01/08 06:52:52;;;;;;;3.03;1.30;;;6.40;99.90;;;;;;5011544;28;20211;-72
2023/01/08 06:55:18;;;;;;;2.90;1.30;;;6.40;99.90;;;;;;5001922;28;20262;-72
2023/01/08 06:57:44;;;;;;;2.40;1.30;;;6.40;99.90;;;;;;5024358;28;20440;-72
2023/01/08 07:00:10;;;;;;;1.50;0.83;;;6.40;99.90;;;;;;5007050;28;20950;-72
2023/01/08 07:02:36;;;;;;;1.87;1.20;;;6.40;99.90;;;;;;5011093;28;20234;-72
2023/01/08 07:05:01;;;;;;;2.57;1.33;;;6.40;99.90;;;;;;5027033;28;20421;-72
2023/01/08 07:07:27;;;;;;;2.77;0.90;;;6.40;99.90;;;;;;5010841;28;20613;-72
2023/01/08 07:09:52;;;;;;;3.47;1.10;;;6.30;99.90;;;;;;5009570;28;20181;-71
2023/01/08 07:12:18;;;;;;;2.37;0.90;;;6.30;99.90;;;;;;5012656;28;20571;-71
2023/01/08 07:14:43;;;;;;;2.80;1.47;;;6.40;99.90;;;;;;5023979;28;20261;-71
2023/01/08 07:17:09;;;;;;;2.57;1.17;;;6.40;99.90;;;;;;5013324;28;20639;-71
2023/01/08 07:19:35;;;;;;;1.97;1.10;;;6.40;99.90;;;;;;5020885;28;20566;-71
2023/01/08 07:22:01;;;;;;;3.90;1.50;;;6.40;99.90;;;;;;5029353;28;20194;-70
2023/01/08 07:24:26;;;;;;;1.70;0.90;;;6.40;99.90;;;;;;5034507;28;20191;-70
2023/01/08 07:26:52;;;;;;;1.80;0.97;;;6.40;99.90;;;;;;5025585;28;20232;-70
2023/01/08 07:29:17;;;;;;;2.07;0.80;;;6.50;99.90;;;;;;5033267;28;20190;-70
2023/01/08 07:31:43;;;;;;;1.93;1.00;;;6.50;99.90;;;;;;5009593;28;20208;-70
2023/01/08 07:34:09;;;;;;;2.27;1.33;;;6.40;99.90;;;;;;5032286;28;20592;-70
2023/01/08 07:36:35;;;;;;;2.00;1.17;;;6.40;99.90;;;;;;5033396;28;20182;-71
2023/01/08 07:39:00;;;;;;;4.03;1.13;;;6.50;99.90;;;;;;5034146;28;20454;-70
2023/01/08 07:41:26;;;;;;;2.63;1.53;;;6.40;99.90;;;;;;5034247;28;20247;-70
2023/01/08 07:43:51;;;;;;;2.50;1.10;;;6.50;99.90;;;;;;5020749;28;20201;-70
2023/01/08 07:46:17;;;;;;;3.00;1.60;;;6.50;99.90;;;;;;5021724;28;20539;-70
2023/01/08 07:48:43;;;;;;;3.70;1.60;;;6.50;99.90;;;;;;5022244;28;20191;-70
2023/01/08 07:51:09;;;;;;;1.70;0.87;;;6.50;99.90;;;;;;5018816;28;20194;-70
2023/01/08 07:53:36;;;;;;;3.43;1.27;;;6.50;99.90;;;;;;5007917;28;20640;-70
2023/01/08 07:56:04;;;;;;;6.00;1.50;;;6.50;99.90;;;;;;5017271;28;20185;-70
2023/01/08 07:58:30;;;;;;;4.23;1.27;;;6.50;99.90;;;;;;5028331;28;20423;-70
2023/01/08 08:00:56;;;;;;;7.53;2.40;;;6.60;99.90;;;;;;5013748;28;20421;-70
2023/01/08 08:03:22;;;;;;;2.20;1.13;;;6.60;99.90;;;;;;5019722;28;20494;-71
2023/01/08 08:05:48;;;;;;;2.47;0.70;;;6.60;99.90;;;;;;5021219;28;20476;-70
2023/01/08 08:08:14;;;;;;;2.93;1.00;;;6.50;99.90;;;;;;5010085;28;20831;-70
2023/01/08 08:10:41;;;;;;;2.00;1.00;;;6.50;99.90;;;;;;5026727;28;20191;-71
2023/01/08 08:13:07;;;;;;;3.00;1.33;;;6.50;99.90;;;;;;5033328;28;20210;-71
2023/01/08 08:15:34;;;;;;;1.83;0.80;;;6.50;99.90;;;;;;5020300;28;20891;-71
2023/01/08 08:18:00;;;;;;;1.90;1.03;;;6.50;99.90;;;;;;5006948;28;20881;-71
2023/01/08 08:20:26;;;;;;;2.03;0.80;;;6.60;99.90;;;;;;5007924;28;20558;-71
2023/01/08 08:22:58;;;;;;;2.27;1.20;;;6.50;99.90;;;;;;5032511;28;20654;-71
2023/01/08 08:25:24;;;;;;;2.77;1.20;;;6.50;99.90;;;;;;5033371;28;20439;-71
2023/01/08 08:27:49;;;;;;;2.00;1.10;;;6.50;99.90;;;;;;5023308;28;20503;-71
2023/01/08 08:30:15;;;;;;;1.77;0.70;;;6.50;99.90;;;;;;5033076;28;20827;-71
2023/01/08 08:32:40;;;;;;;2.07;1.13;;;6.50;99.90;;;;;;5023088;28;20269;-71
2023/01/08 08:35:06;;;;;;;2.37;1.00;;;6.50;99.90;;;;;;5024578;28;20187;-71
2023/01/08 08:37:32;;;;;;;2.70;1.33;;;6.50;99.90;;;;;;5026984;28;20192;-70
2023/01/08 08:39:57;;;;;;;3.10;1.33;;;6.60;99.90;;;;;;5026256;28;20178;-71
2023/01/08 08:42:23;;;;;;;1.60;0.80;;;6.60;99.90;;;;;;5032710;28;20534;-71
2023/01/08 08:44:49;;;;;;;4.03;0.97;;;6.60;99.90;;;;;;5032773;28;20190;-71
2023/01/08 08:47:14;;;;;;;2.40;0.93;;;6.50;99.90;;;;;;5007923;28;20194;-71
2023/01/08 08:49:40;;;;;;;1.30;0.73;;;6.60;99.90;;;;;;5029742;28;20195;-71
2023/01/08 08:52:05;;;;;;;1.60;0.60;;;6.60;99.90;;;;;;5019527;28;20211;-71
2023/01/08 08:54:32;;;;;;;1.70;0.80;;;6.60;99.90;;;;;;5033055;28;20229;-71
2023/01/08 08:56:57;;;;;;;3.50;1.47;;;6.60;99.90;;;;;;5029065;28;20182;-71
2023/01/08 08:59:23;;;;;;;2.20;0.93;;;6.60;99.90;;;;;;5019869;28;20930;-71
2023/01/08 09:01:49;;;;;;;2.53;1.00;;;6.60;99.90;;;;;;5006300;28;20242;-71
2023/01/08 09:04:14;;;;;;;1.30;0.70;;;6.60;99.90;;;;;;5019304;28;20194;-71
2023/01/08 09:06:40;;;;;;;1.73;0.83;;;6.60;99.90;;;;;;5018485;28;20635;-72
2023/01/08 09:09:05;;;;;;;1.93;0.93;;;6.60;99.90;;;;;;5012884;28;20214;-72
2023/01/08 09:11:31;;;;;;;1.30;0.80;;;6.70;99.90;;;;;;5032134;28;20214;-71
2023/01/08 09:13:57;;;;;;;1.47;0.70;;;6.70;99.90;;;;;;5032475;28;20182;-71
2023/01/08 09:16:22;;;;;;;1.20;0.60;;;6.70;99.90;;;;;;5032187;28;20552;-71
2023/01/08 09:18:48;;;;;;;1.33;0.80;;;6.70;99.90;;;;;;5032486;28;20605;-71
2023/01/08 09:21:14;;;;;;;8.27;1.70;;;6.70;99.90;;;;;;5032347;28;20182;-71
2023/01/08 09:23:40;;;;;;;2.00;1.03;;;6.70;99.90;;;;;;5032434;28;20236;-71
2023/01/08 09:26:05;;;;;;;2.63;1.27;;;6.70;99.90;;;;;;5029579;28;20429;-72
2023/01/08 09:28:32;;;;;;;2.70;1.13;;;6.80;99.90;;;;;;4995144;28;20187;-71
2023/01/08 09:31:02;;;;;;;1.90;0.90;;;6.80;99.90;;;;;;5031665;28;20313;-71
2023/01/08 09:33:28;;;;;;;2.50;0.93;;;6.80;99.90;;;;;;5031758;28;20429;-71
2023/01/08 09:35:54;;;;;;;2.30;0.90;;;6.80;99.90;;;;;;5031590;28;20421;-72
2023/01/08 09:38:19;;;;;;;1.60;0.90;;;6.90;99.90;;;;;;5031872;28;20512;-72
2023/01/08 09:40:57;;;;;;;1.37;0.80;;;6.90;99.90;;;;;;5031952;28;20197;-72
2023/01/08 09:43:25;;;;;;;1.50;0.80;;;6.90;99.90;;;;;;5004887;28;20195;-71
2023/01/08 09:46:01;;;;;;;2.23;1.07;;;6.90;99.90;;;;;;5032033;28;20409;-71
2023/01/08 09:48:34;;;;;;;1.70;0.90;;;6.90;99.90;;;;;;5018715;28;20420;-71
2023/01/08 09:51:00;;;;;;;1.50;0.60;;;6.90;99.90;;;;;;5031924;28;20417;-71
2023/01/08 09:53:27;;;;;;;2.23;1.00;;;6.90;99.90;;;;;;5031720;28;20504;-71
2023/01/08 09:55:59;;;;;;;6.33;1.30;;;7.00;99.90;;;;;;5030732;28;20765;-71
2023/01/08 09:58:36;;;;;;;3.20;0.80;;;7.00;99.90;;;;;;5025483;28;20449;-71
2023/01/08 10:01:03;;;;;;;2.60;1.20;;;6.90;99.90;;;;;;5011640;28;20432;-71
2023/01/08 10:03:38;;;;;;;1.73;0.87;;;7.00;99.90;;;;;;5005427;28;20814;-71
2023/01/08 10:06:09;;;;;;;1.87;0.83;;;7.10;99.90;;;;;;5022742;28;20422;-71
2023/01/08 10:08:35;;;;;;;1.40;0.70;;;7.10;99.90;;;;;;5021043;28;20417;-72
2023/01/08 10:11:02;;;;;;;3.10;1.23;;;7.00;99.90;;;;;;5028339;28;20536;-71
2023/01/08 10:13:28;;;;;;;1.60;0.67;;;7.10;99.90;;;;;;5020354;28;20530;-71
2023/01/08 10:15:53;;;;;;;1.60;0.80;;;7.10;99.90;;;;;;5031333;28;20409;-72
2023/01/08 10:18:23;;;;;;;2.17;0.80;;;7.10;99.90;;;;;;5023131;28;20179;-71
2023/01/08 10:20:48;;;;;;;2.03;1.27;;;7.20;99.90;;;;;;5014188;28;20588;-72
2023/01/08 10:23:17;;;;;;;1.97;1.00;;;7.40;99.90;;;;;;5031337;28;20448;-71
2023/01/08 10:25:49;;;;;;;1.40;0.80;;;7.20;99.90;;;;;;5031714;28;20194;-71
2023/01/08 10:28:19;;;;;;;1.60;0.70;;;7.30;99.90;;;;;;4992305;28;20902;-71
2023/01/08 10:30:45;;;;;;;1.90;0.77;;;7.30;99.90;;;;;;5008273;28;20456;-71
2023/01/08 10:33:24;;;;;;;1.67;0.60;;;7.30;99.90;;;;;;5020556;28;20516;-71
2023/01/08 10:35:54;;;;;;;1.67;0.70;;;7.30;99.90;;;;;;5013084;28;20521;-71
2023/01/08 10:38:30;;;;;;;1.40;0.87;;;7.30;99.90;;;;;;5011923;28;20433;-70
2023/01/08 10:40:56;;;;;;;1.73;0.90;;;7.30;99.90;;;;;;4999649;28;20472;-71
2023/01/08 10:43:30;;;;;;;1.20;0.70;;;7.40;99.90;;;;;;5025338;28;21134;-71
2023/01/08 10:46:01;;;;;;;2.27;1.00;;;7.40;99.90;;;;;;5022190;28;20428;-71
2023/01/08 10:48:34;;;;;;;1.50;0.77;;;7.40;99.90;;;;;;5022297;28;20968;-71
2023/01/08 10:51:05;;;;;;;1.83;0.70;;;7.40;99.90;;;;;;5014001;28;20417;-71
2023/01/08 10:53:31;;;;;;;1.63;0.70;;;7.50;99.90;;;;;;5035034;28;20427;-70
2023/01/08 10:56:02;;;;;;;1.37;0.60;;;7.60;99.90;;;;;;5033556;28;20529;-71
2023/01/08 10:58:29;;;;;;;1.20;0.60;;;7.60;99.90;;;;;;5033824;28;20500;-71
2023/01/08 11:01:07;;;;;;;1.30;0.70;;;7.60;99.90;;;;;;5022610;28;20422;-71
2023/01/08 11:03:32;;;;;;;1.50;0.63;;;7.70;99.90;;;;;;5009594;28;20455;-71
2023/01/08 11:05:58;;;;;;;1.20;0.50;;;7.80;99.90;;;;;;5026689;28;20863;-71
2023/01/08 11:08:24;;;;;;;1.67;0.70;;;7.80;99.90;;;;;;5019599;28;20298;-71
2023/01/08 11:10:55;;;;;;;1.33;0.80;;;7.80;99.90;;;;;;5015894;28;20179;-71
2023/01/08 11:13:21;;;;;;;1.50;0.70;;;7.80;99.90;;;;;;5034457;28;20198;-71
2023/01/08 11:16:07;;;;;;;1.43;0.73;;;7.80;99.90;;;;;;5034296;28;20799;-71
2023/01/08 11:18:50;;;;;;;2.40;0.80;;;7.90;99.90;;;;;;5034849;28;20497;-71
2023/01/08 11:21:24;;;;;;;1.40;0.63;;;8.00;99.90;;;;;;5025693;28;20421;-71
2023/01/08 11:24:15;;;;;;;1.70;0.80;;;7.90;99.90;;;;;;5018021;28;20448;-70
2023/01/08 11:26:47;;;;;;;1.43;0.60;;;8.00;99.90;;;;;;5012120;28;20507;-70
2023/01/08 11:29:44;;;;;;;1.50;0.80;;;8.00;99.90;;;;;;5014351;28;20418;-71
2023/01/08 11:32:35;;;;;;;1.20;0.70;;;8.00;99.90;;;;;;5025962;28;20473;-70
2023/01/08 11:35:32;;;;;;;1.17;0.50;;;8.10;99.90;;;;;;5034019;28;20420;-70
2023/01/08 11:38:00;;;;;;;2.40;0.70;;;8.10;99.90;;;;;;5016580;28;20508;-71
2023/01/08 11:40:38;;;;;;;3.00;1.00;;;8.10;99.90;;;;;;5020780;28;20416;-71
2023/01/08 11:43:15;;;;;;;1.97;0.90;;;8.10;99.90;;;;;;5033835;28;20555;-71
2023/01/08 11:46:02;;;;;;;1.30;0.70;;;8.20;99.90;;;;;;5009862;28;20417;-70
2023/01/08 11:48:28;;;;;;;2.07;0.87;;;8.20;99.90;;;;;;5029968;28;20453;-71
2023/01/08 11:51:25;;;;;;;1.40;0.63;;;8.30;99.90;;;;;;5025140;28;20459;-70
2023/01/08 11:54:11;;;;;;;1.37;0.67;;;8.30;99.90;;;;;;5033860;28;20340;-71
2023/01/08 11:56:44;;;;;;;2.07;0.80;;;8.30;99.90;;;;;;5020843;28;20425;-70
2023/01/08 11:59:28;;;;;;;1.13;0.47;;;8.40;99.90;;;;;;5021843;28;20422;-70
2023/01/08 12:02:25;;;;;;;1.30;0.60;;;8.40;99.90;;;;;;5009261;28;20947;-70
2023/01/08 12:05:15;;;;;;;1.30;0.60;;;8.40;99.90;;;;;;5025988;28;20429;-70
2023/01/08 12:07:49;;;;;;;1.30;0.60;;;8.50;99.90;;;;;;5023696;28;20429;-70
2023/01/08 12:10:26;;;;;;;1.20;0.60;;;8.50;99.90;;;;;;5024552;28;20432;-70
2023/01/08 12:13:01;;;;;;;2.37;0.70;;;8.60;99.90;;;;;;5028824;28;20458;-70
2023/01/08 12:15:28;;;;;;;2.03;0.60;;;8.60;99.90;;;;;;5025422;28;20771;-70
2023/01/08 12:18:41;;;;;;;1.10;0.50;;;8.60;99.90;;;;;;5020335;28;20504;-71
2023/01/08 12:21:33;;;;;;;1.20;0.60;;;8.50;99.90;;;;;;5009690;28;20435;-70
2023/01/08 12:24:17;;;;;;;1.27;0.57;;;8.50;99.90;;;;;;5033052;28;20417;-70
2023/01/08 12:27:01;;;;;;;1.80;0.70;;;8.50;99.90;;;;;;5025794;28;20902;-71
2023/01/08 12:29:42;;;;;;;1.10;0.50;;;8.60;99.90;;;;;;5007923;28;20448;-71
2023/01/08 12:32:24;;;;;;;2.33;1.13;;;8.60;99.90;;;;;;5032290;28;20464;-71
2023/01/08 12:35:11;;;;;;;1.40;0.67;;;8.70;99.90;;;;;;5010871;28;20438;-70
2023/01/08 12:37:40;;;;;;;1.10;0.50;;;8.60;99.90;;;;;;5009078;28;20420;-70
2023/01/08 12:40:12;;;;;;;1.40;0.73;;;8.70;99.90;;;;;;5033227;28;20413;-70
2023/01/08 12:42:42;;;;;;;1.43;0.70;;;8.60;99.90;;;;;;5023694;28;20414;-70
2023/01/08 12:45:21;;;;;;;1.73;0.77;;;8.60;99.90;;;;;;5029032;28;20870;-70
2023/01/08 12:47:53;;;;;;;1.40;0.70;;;8.50;99.90;;;;;;5021831;28;20414;-69
2023/01/08 12:50:30;;;;;;;1.70;0.70;;;8.70;99.90;;;;;;5031743;28;20712;-70
2023/01/08 12:53:29;;;;;;;1.33;0.60;;;8.50;99.90;;;;;;5032108;28;20496;-70
2023/01/08 12:56:15;;;;;;;2.23;0.80;;;8.50;99.90;;;;;;5016875;28;20446;-70
2023/01/08 12:58:53;;;;;;;5.13;0.90;;;8.50;99.90;;;;;;5008025;28;20909;-70
2023/01/08 13:01:40;;;;;;;1.47;0.83;;;8.50;99.90;;;;;;5011878;28;20746;-69
2023/01/08 13:04:08;;;;;;;1.80;0.70;;;8.60;99.90;;;;;;5024317;28;20405;-70
2023/01/08 13:06:34;;;;;;;2.23;1.10;;;8.50;99.90;;;;;;5027057;28;20413;-70
2023/01/08 13:09:00;;;;;;;8.27;0.97;;;8.50;99.90;;;;;;5012594;28;20428;-70
2023/01/08 13:11:32;;;;;;;2.80;1.50;;;8.50;99.90;;;;;;5021575;28;20410;-70